Time;durP1;ratioP1;P1;durP2;ratioP2;P2;SDS_P1;SDS_P2;PMS_P1;PMS_P2;Temp;Humidity;BMP_temperature;BMP_pressure;BME280_temperature;BME280_humidity;BME280_pressure;Samples;Min_cycle;Max_cycle;Signal;HPM_P1;HPM_P2
2022/09/14 00:00:06;;;;;;;;;;;;;;;23.97;53.41;94713.56;5069737;28;20419;-64
2022/09/14 00:02:31;;;;;;;;;;;;;;;23.95;53.23;94715.13;5088497;28;20020;-64
2022/09/14 00:04:56;;;;;;;;;;;;;;;23.90;53.26;94719.03;5089223;28;20013;-65
2022/09/14 00:07:22;;;;;;;;;;;;;;;23.84;53.76;94729.56;5070604;28;20012;-65
2022/09/14 00:09:47;;;;;;;;;;;;;;;23.79;53.53;94712.91;5087975;28;20020;-65
2022/09/14 00:12:13;;;;;;;;;;;;;;;23.72;53.65;94707.53;5089826;28;20005;-65
2022/09/14 00:14:39;;;;;;;;;;;;;;;23.68;53.85;94704.84;5070153;28;20065;-65
2022/09/14 00:17:04;;;;;;;;;;;;;;;23.69;54.18;94709.09;5088864;28;20013;-65
2022/09/14 00:19:29;;;;;;;;;;;;;;;23.66;54.25;94709.91;5088428;28;20013;-65
2022/09/14 00:21:55;;;;;;;;;;;;;;;23.58;54.27;94713.81;5087918;28;20013;-65
2022/09/14 00:24:21;;;;;;;;;;;;;;;23.28;54.98;94708.94;5089706;28;20005;-65
2022/09/14 00:26:50;;;;;;;;;;;;;;;23.27;54.98;94713.59;5089047;28;20062;-65
2022/09/14 00:29:16;;;;;;;;;;;;;;;23.33;54.79;94712.00;5089520;28;20373;-64
2022/09/14 00:31:41;;;;;;;;;;;;;;;23.39;54.77;94715.09;5088294;28;20013;-65
2022/09/14 00:34:07;;;;;;;;;;;;;;;23.48;54.59;94709.22;5087881;28;20154;-65
2022/09/14 00:36:36;;;;;;;;;;;;;;;23.47;54.81;94716.59;5071611;28;20044;-65
2022/09/14 00:39:01;;;;;;;;;;;;;;;23.49;54.75;94697.19;5086555;28;20094;-65
2022/09/14 00:41:32;;;;;;;;;;;;;;;23.52;54.67;94699.09;5071881;28;20480;-65
2022/09/14 00:43:59;;;;;;;;;;;;;;;23.53;54.67;94700.66;5087947;28;20013;-65
2022/09/14 00:46:26;;;;;;;;;;;;;;;23.55;54.64;94699.09;5087007;28;20017;-65
2022/09/14 00:48:52;;;;;;;;;;;;;;;23.56;54.46;94692.50;5086203;28;20017;-65
2022/09/14 00:51:18;;;;;;;;;;;;;;;23.60;54.40;94681.63;5091135;28;20015;-65
2022/09/14 00:53:43;;;;;;;;;;;;;;;23.59;54.14;94672.66;5070822;28;20048;-66
2022/09/14 00:56:08;;;;;;;;;;;;;;;23.63;54.43;94667.25;5093420;28;20372;-65
2022/09/14 00:58:34;;;;;;;;;;;;;;;23.64;54.43;94660.66;5091890;28;20500;-65
2022/09/14 01:01:00;;;;;;;;;;;;;;;23.67;54.07;94653.66;5092149;28;20020;-65
2022/09/14 01:03:25;;;;;;;;;;;;;;;23.71;54.27;94652.47;5091709;28;20009;-65
2022/09/14 01:05:56;;;;;;;;;;;;;;;23.73;54.15;94658.25;5093288;28;20093;-66
2022/09/14 01:08:29;;;;;;;;;;;;;;;23.71;54.22;94659.84;5090760;28;20105;-65
2022/09/14 01:11:03;;;;;;;;;;;;;;;23.70;54.20;94652.84;5093105;28;20009;-67
2022/09/14 01:13:46;;;;;;;;;;;;;;;23.68;54.47;94634.25;5092047;28;20130;-65
2022/09/14 01:16:30;;;;;;;;;;;;;;;23.66;54.17;94633.13;5091121;28;20058;-66
2022/09/14 01:18:56;;;;;;;;;;;;;;;23.67;54.04;94626.50;5091552;28;20027;-66
2022/09/14 01:21:25;;;;;;;;;;;;;;;23.67;54.50;94623.78;5093194;28;20357;-65
2022/09/14 01:24:02;;;;;;;;;;;;;;;23.67;54.27;94615.66;5090744;28;20009;-65
2022/09/14 01:26:44;;;;;;;;;;;;;;;23.68;54.09;94617.97;5092826;28;20011;-66
2022/09/14 01:29:19;;;;;;;;;;;;;;;23.69;54.32;94611.34;5073283;28;20062;-65
2022/09/14 01:31:47;;;;;;;;;;;;;;;23.68;54.59;94609.03;5091776;28;20089;-66
2022/09/14 01:34:21;;;;;;;;;;;;;;;23.67;54.23;94607.50;5089869;28;20012;-66
2022/09/14 01:36:50;;;;;;;;;;;;;;;23.65;54.30;94607.13;5092722;28;20418;-65
2022/09/14 01:39:16;;;;;;;;;;;;;;;23.65;54.28;94602.47;5090297;28;20436;-65
2022/09/14 01:41:42;;;;;;;;;;;;;;;23.63;54.33;94599.38;5092386;28;20011;-65
2022/09/14 01:44:10;;;;;;;;;;;;;;;23.64;54.38;94600.16;5073155;28;20005;-66
2022/09/14 01:46:38;;;;;;;;;;;;;;;23.60;54.61;94597.44;5072414;28;20013;-66
2022/09/14 01:49:11;;;;;;;;;;;;;;;23.62;54.71;94589.66;5072544;28;20017;-65
2022/09/14 01:51:42;;;;;;;;;;;;;;;23.67;54.32;94583.84;5092517;28;20005;-67
2022/09/14 01:54:13;;;;;;;;;;;;;;;23.66;54.25;94582.31;5090081;28;20015;-67
2022/09/14 01:56:41;;;;;;;;;;;;;;;23.25;54.53;94525.22;5092511;28;20005;-66
2022/09/14 01:59:14;;;;;;;;;;;;;;;23.70;54.21;94593.13;5090848;28;20489;-66
2022/09/14 02:01:42;;;;;;;;;;;;;;;23.71;54.16;94589.25;5071617;28;20013;-66
2022/09/14 02:04:09;;;;;;;;;;;;;;;23.68;53.93;94596.22;5089802;28;20035;-65
2022/09/14 02:06:40;;;;;;;;;;;;;;;23.69;54.05;94597.00;5073840;28;20009;-65
2022/09/14 02:09:06;;;;;;;;;;;;;;;23.66;53.93;94584.25;5071526;28;20506;-66
2022/09/14 02:11:31;;;;;;;;;;;;;;;23.65;54.04;94588.13;5091954;28;20045;-65
2022/09/14 02:13:56;;;;;;;;;;;;;;;23.68;53.92;94587.31;5091427;28;20086;-66
2022/09/14 02:16:22;;;;;;;;;;;;;;;23.64;53.95;94594.72;5090501;28;20013;-66
2022/09/14 02:18:47;;;;;;;;;;;;;;;23.40;54.04;94593.75;5090620;28;20017;-65
2022/09/14 02:21:15;;;;;;;;;;;;;;;23.40;54.37;94593.75;5090793;28;20422;-65
2022/09/14 02:23:41;;;;;;;;;;;;;;;23.46;54.16;94590.19;5090921;28;20098;-65
2022/09/14 02:26:06;;;;;;;;;;;;;;;23.44;53.91;94597.16;5090571;28;20035;-65
2022/09/14 02:28:31;;;;;;;;;;;;;;;23.46;54.22;94600.28;5071747;28;20067;-65
2022/09/14 02:31:12;;;;;;;;;;;;;;;23.38;54.41;94598.78;5088618;28;20464;-65
2022/09/14 02:33:57;;;;;;;;;;;;;;;23.34;54.40;94594.16;5072344;28;20430;-66
2022/09/14 02:36:27;;;;;;;;;;;;;;;23.44;54.25;94600.69;5090498;28;20009;-66
2022/09/14 02:39:07;;;;;;;;;;;;;;;23.47;54.21;94590.94;5089052;28;20013;-66
2022/09/14 02:41:33;;;;;;;;;;;;;;;23.51;54.01;94584.34;5073157;28;20019;-66
2022/09/14 02:44:04;;;;;;;;;;;;;;;23.54;54.19;94585.47;5090675;28;20030;-66
2022/09/14 02:46:41;;;;;;;;;;;;;;;23.55;54.09;94579.66;5072088;28;20021;-66
2022/09/14 02:49:11;;;;;;;;;;;;;;;23.59;53.85;94564.06;5070024;28;20043;-66
2022/09/14 02:51:41;;;;;;;;;;;;;;;23.61;53.75;94553.59;5073040;28;20017;-66
2022/09/14 02:54:15;;;;;;;;;;;;;;;23.63;53.67;94549.72;5089830;28;20009;-67
2022/09/14 02:56:41;;;;;;;;;;;;;;;23.67;53.27;94534.97;5090499;28;20012;-66
2022/09/14 02:59:06;;;;;;;;;;;;;;;23.65;53.61;94537.31;5089692;28;20058;-65
2022/09/14 03:01:31;;;;;;;;;;;;;;;23.69;53.89;94537.28;5070986;28;20009;-65
2022/09/14 03:03:56;;;;;;;;;;;;;;;23.67;53.72;94537.69;5105708;28;20111;-65
2022/09/14 03:06:22;;;;;;;;;;;;;;;23.59;53.78;94539.66;5065982;28;20133;-65
2022/09/14 03:08:47;;;;;;;;;;;;;;;23.56;54.18;94531.56;5052266;28;20388;-65
2022/09/14 03:11:13;;;;;;;;;;;;;;;23.56;54.10;94529.59;5088848;28;20013;-65
2022/09/14 03:13:38;;;;;;;;;;;;;;;23.54;54.21;94523.78;5090536;28;20099;-65
2022/09/14 03:16:08;;;;;;;;;;;;;;;23.53;54.16;94526.91;5088807;28;20089;-65
2022/09/14 03:18:34;;;;;;;;;;;;;;;23.55;54.10;94530.03;5090226;28;20417;-64
2022/09/14 03:21:06;;;;;;;;;;;;;;;23.51;54.09;94538.19;5070912;28;20015;-65
2022/09/14 03:23:36;;;;;;;;;;;;;;;23.48;54.42;94535.50;5072472;28;20119;-66
2022/09/14 03:26:05;;;;;;;;;;;;;;;23.47;54.41;94536.66;5070667;28;20016;-65
2022/09/14 03:28:30;;;;;;;;;;;;;;;23.47;54.58;94532.00;5089898;28;20017;-65
2022/09/14 03:30:59;;;;;;;;;;;;;;;23.50;54.22;94528.50;5088304;28;20024;-65
2022/09/14 03:33:24;;;;;;;;;;;;;;;23.53;54.37;94526.91;5089739;28;20114;-65
2022/09/14 03:35:49;;;;;;;;;;;;;;;23.55;54.50;94533.50;5089631;28;20067;-66
2022/09/14 03:38:14;;;;;;;;;;;;;;;23.57;54.31;94524.94;5089861;28;20103;-66
2022/09/14 03:40:40;;;;;;;;;;;;;;;23.56;54.28;94523.41;5088439;28;20013;-66
2022/09/14 03:43:05;;;;;;;;;;;;;;;23.55;54.38;94519.16;5090387;28;20005;-66
2022/09/14 03:45:30;;;;;;;;;;;;;;;23.57;54.67;94519.50;5088005;28;20012;-66
2022/09/14 03:47:55;;;;;;;;;;;;;;;23.59;54.37;94511.72;5090264;28;20015;-65
2022/09/14 03:50:21;;;;;;;;;;;;;;;23.60;54.58;94518.72;5069370;28;20519;-66
2022/09/14 03:52:46;;;;;;;;;;;;;;;23.55;54.18;94521.88;5090329;28;20012;-66
2022/09/14 03:55:11;;;;;;;;;;;;;;;23.48;54.66;94513.78;5069917;28;20013;-66
2022/09/14 03:57:37;;;;;;;;;;;;;;;23.55;54.43;94511.00;5090290;28;20016;-66
2022/09/14 04:00:03;;;;;;;;;;;;;;;23.62;54.77;94508.22;5088410;28;20067;-66
2022/09/14 04:02:28;;;;;;;;;;;;;;;23.69;54.37;94515.56;5088791;28;20009;-66
2022/09/14 04:04:54;;;;;;;;;;;;;;;23.72;54.47;94518.25;5071000;28;21015;-66
2022/09/14 04:07:19;;;;;;;;;;;;;;;23.80;54.16;94527.06;5090011;28;20013;-66
2022/09/14 04:09:44;;;;;;;;;;;;;;;23.86;53.69;94526.25;5088552;28;20020;-66
2022/09/14 04:12:09;;;;;;;;;;;;;;;23.89;53.50;94532.81;5070912;28;20078;-66
2022/09/14 04:14:35;;;;;;;;;;;;;;;23.42;54.57;94545.25;5088893;28;20013;-66
2022/09/14 04:17:00;;;;;;;;;;;;;;;23.62;54.30;94535.38;5070534;28;20020;-66
2022/09/14 04:19:26;;;;;;;;;;;;;;;23.75;54.33;94547.31;5088658;28;20391;-66
2022/09/14 04:21:51;;;;;;;;;;;;;;;23.84;54.14;94552.25;5088371;28;20013;-66
2022/09/14 04:24:17;;;;;;;;;;;;;;;23.91;53.91;94548.72;5087572;28;20048;-67
2022/09/14 04:26:43;;;;;;;;;;;;;;;23.98;53.37;94546.69;5073131;28;20020;-66
2022/09/14 04:29:09;;;;;;;;;;;;;;;24.02;53.65;94550.13;5092556;28;20019;-66
2022/09/14 04:31:34;;;;;;;;;;;;;;;24.06;53.41;94545.44;5091746;28;20025;-65
2022/09/14 04:34:00;;;;;;;;;;;;;;;24.10;53.62;94542.66;5092140;28;20020;-66
2022/09/14 04:36:28;;;;;;;;;;;;;;;24.10;53.26;94545.38;5092541;28;20476;-66
2022/09/14 04:38:54;;;;;;;;;;;;;;;24.10;53.20;94539.94;5073050;28;20006;-66
2022/09/14 04:41:20;;;;;;;;;;;;;;;24.13;53.13;94533.72;5078410;28;20005;-66
2022/09/14 04:43:48;;;;;;;;;;;;;;;24.13;53.05;94533.72;5092707;28;20024;-66
2022/09/14 04:46:15;;;;;;;;;;;;;;;24.17;53.18;94522.81;5092314;28;20381;-66
2022/09/14 04:48:40;;;;;;;;;;;;;;;24.20;53.10;94516.56;5093159;28;20063;-66
2022/09/14 04:51:08;;;;;;;;;;;;;;;24.20;53.05;94532.84;5091709;28;20040;-66
2022/09/14 04:53:34;;;;;;;;;;;;;;;24.19;53.13;94525.88;5093685;28;20009;-65
2022/09/14 04:56:00;;;;;;;;;;;;;;;24.21;53.18;94526.25;5073469;28;20103;-65
2022/09/14 04:58:27;;;;;;;;;;;;;;;24.23;53.24;94527.38;5074587;28;20028;-65
2022/09/14 05:00:53;;;;;;;;;;;;;;;24.23;53.26;94530.09;5088469;28;20496;-65
2022/09/14 05:03:18;;;;;;;;;;;;;;;24.23;53.07;94527.38;5074631;28;20013;-66
2022/09/14 05:05:43;;;;;;;;;;;;;;;24.21;53.14;94527.03;5092231;28;20365;-66
2022/09/14 05:08:08;;;;;;;;;;;;;;;24.25;53.12;94522.31;5092324;28;20020;-66
2022/09/14 05:10:33;;;;;;;;;;;;;;;24.23;53.31;94523.91;5091425;28;20009;-65
2022/09/14 05:12:59;;;;;;;;;;;;;;;24.22;53.49;94519.66;5092371;28;20019;-66
2022/09/14 05:15:24;;;;;;;;;;;;;;;24.21;53.59;94524.31;5091048;28;21067;-65
2022/09/14 05:17:49;;;;;;;;;;;;;;;24.18;53.79;94519.69;5092860;28;20100;-65
2022/09/14 05:20:14;;;;;;;;;;;;;;;24.18;53.82;94510.75;5091241;28;20120;-66
2022/09/14 05:22:39;;;;;;;;;;;;;;;24.20;53.68;94513.84;5090371;28;20013;-66
2022/09/14 05:25:05;;;;;;;;;;;;;;;24.20;53.71;94511.88;5073655;28;20028;-66
2022/09/14 05:27:30;;;;;;;;;;;;;;;24.22;54.09;94511.50;5092069;28;20365;-66
2022/09/14 05:29:55;;;;;;;;;;;;;;;24.21;54.08;94507.22;5091038;28;20017;-66
2022/09/14 05:32:21;;;;;;;;;;;;;;;24.25;54.01;94505.22;5089356;28;20013;-66
2022/09/14 05:34:46;;;;;;;;;;;;;;;24.31;54.01;94501.69;5091579;28;20059;-66
2022/09/14 05:37:11;;;;;;;;;;;;;;;24.31;54.01;94503.59;5090518;28;20008;-65
2022/09/14 05:39:37;;;;;;;;;;;;;;;24.05;54.34;94505.06;5091855;28;20016;-65
2022/09/14 05:42:02;;;;;;;;;;;;;;;24.04;54.26;94506.25;5091442;28;20074;-66
2022/09/14 05:44:27;;;;;;;;;;;;;;;24.41;53.77;94493.81;5092396;28;20104;-65
2022/09/14 05:46:53;;;;;;;;;;;;;;;24.30;53.73;94491.19;5085771;28;20074;-63
2022/09/14 05:49:19;;;;;;;;;;;;;;;24.36;52.98;94487.66;5089009;28;20388;-63
2022/09/14 05:51:45;;;;;;;;;;;;;;;24.36;53.10;94493.09;5089422;28;20086;-64
2022/09/14 05:54:10;;;;;;;;;;;;;;;24.77;52.94;94488.66;5100759;28;20009;-66
2022/09/14 05:56:36;;;;;;;;;;;;;;;24.99;51.91;94497.28;5067878;28;20012;-67
2022/09/14 05:59:01;;;;;;;;;;;;;;;24.80;51.59;94496.00;5090628;28;20019;-65
2022/09/14 06:01:28;;;;;;;;;;;;;;;25.10;51.08;94495.19;5092519;28;20012;-67
2022/09/14 06:03:55;;;;;;;;;;;;;;;25.13;50.87;94494.34;5090880;28;20013;-67
2022/09/14 06:06:20;;;;;;;;;;;;;;;25.37;50.40;94503.31;5092422;28;20015;-66
2022/09/14 06:08:49;;;;;;;;;;;;;;;25.43;50.10;94512.53;5090913;28;20021;-67
2022/09/14 06:11:16;;;;;;;;;;;;;;;25.57;49.79;94512.28;5074256;28;20020;-69
2022/09/14 06:13:42;;;;;;;;;;;;;;;25.20;50.51;94528.88;5091564;28;20013;-68
2022/09/14 06:16:09;;;;;;;;;;;;;;;25.08;51.32;94522.03;5074049;28;20016;-67
2022/09/14 06:18:35;;;;;;;;;;;;;;;24.92;52.43;94521.84;5090343;28;20040;-66
2022/09/14 06:21:01;;;;;;;;;;;;;;;25.27;52.00;94531.47;5088296;28;20403;-68
2022/09/14 06:23:27;;;;;;;;;;;;;;;25.43;51.78;94517.97;5074327;28;20020;-69
2022/09/14 06:25:53;;;;;;;;;;;;;;;25.65;51.66;94518.41;5091154;28;20373;-68
2022/09/14 06:28:19;;;;;;;;;;;;;;;25.84;51.37;94523.13;5072698;28;20476;-67
2022/09/14 06:30:44;;;;;;;;;;;;;;;25.82;51.13;94522.00;5090061;28;20073;-65
2022/09/14 06:33:09;;;;;;;;;;;;;;;26.15;50.40;94520.97;5072252;28;20478;-68
2022/09/14 06:35:34;;;;;;;;;;;;;;;25.76;50.56;94529.91;5069504;28;20062;-67
2022/09/14 06:37:59;;;;;;;;;;;;;;;26.27;50.38;94532.47;5085554;28;20013;-67
2022/09/14 06:40:25;;;;;;;;;;;;;;;26.31;49.75;94524.97;5090513;28;20096;-67
2022/09/14 06:42:51;;;;;;;;;;;;;;;26.60;49.09;94534.13;5090317;28;20020;-66
2022/09/14 06:45:16;;;;;;;;;;;;;;;26.21;49.09;94542.31;5091008;28;20005;-66
2022/09/14 06:47:41;;;;;;;;;;;;;;;26.07;50.24;94543.34;5090376;28;20013;-65
2022/09/14 06:50:07;;;;;;;;;;;;;;;26.17;50.42;94529.53;5054568;28;20103;-67
2022/09/14 06:52:34;;;;;;;;;;;;;;;26.36;50.64;94511.63;5074241;28;20001;-65
2022/09/14 06:54:59;;;;;;;;;;;;;;;25.85;51.80;94496.66;5090066;28;20133;-65
2022/09/14 06:57:24;;;;;;;;;;;;;;;25.85;52.52;94494.72;5069730;28;20092;-65
2022/09/14 06:59:50;;;;;;;;;;;;;;;25.25;53.86;94490.28;5070476;28;20346;-65
2022/09/14 07:02:15;;;;;;;;;;;;;;;25.51;53.47;94494.13;5086710;28;20404;-65
2022/09/14 07:04:40;;;;;;;;;;;;;;;25.60;53.40;94495.13;5072417;28;20012;-65
2022/09/14 07:07:05;;;;;;;;;;;;;;;26.07;52.39;94492.34;5090058;28;20013;-66
2022/09/14 07:09:30;;;;;;;;;;;;;;;26.11;51.80;94501.22;5090319;28;20017;-66
2022/09/14 07:11:56;;;;;;;;;;;;;;;26.28;52.13;94504.78;5071842;28;20013;-66
2022/09/14 07:14:21;;;;;;;;;;;;;;;26.53;52.10;94514.44;5072382;28;20036;-65
2022/09/14 07:16:46;;;;;;;;;;;;;;;26.73;51.26;94517.13;5068021;28;20119;-64
2022/09/14 07:19:12;;;;;;;;;;;;;;;26.92;50.95;94525.28;5068800;28;20017;-65
2022/09/14 07:21:38;;;;;;;;;;;;;;;27.06;50.88;94517.94;5071392;28;20067;-64
2022/09/14 07:24:03;;;;;;;;;;;;;;;27.24;51.01;94523.78;5088726;28;20389;-65
2022/09/14 07:26:30;;;;;;;;;;;;;;;27.36;50.80;94519.59;5089068;28;20728;-64
2022/09/14 07:28:56;;;;;;;;;;;;;;;27.50;50.68;94508.34;5088492;28;20028;-65
2022/09/14 07:31:31;;;;;;;;;;;;;;;27.66;49.93;94521.22;5090253;28;20012;-65
2022/09/14 07:33:57;;;;;;;;;;;;;;;27.78;50.04;94517.03;5071506;28;20487;-65
2022/09/14 07:36:24;;;;;;;;;;;;;;;27.82;49.93;94523.19;5072133;28;20680;-65
2022/09/14 07:38:49;;;;;;;;;;;;;;;27.92;49.71;94528.38;5071929;28;20104;-65
2022/09/14 07:41:14;;;;;;;;;;;;;;;28.04;49.25;94528.84;5072032;28;20105;-64
2022/09/14 07:43:39;;;;;;;;;;;;;;;28.24;49.14;94529.47;5089257;28;20013;-64
2022/09/14 07:46:05;;;;;;;;;;;;;;;28.54;48.18;94527.50;5090090;28;20012;-65
2022/09/14 07:48:31;;;;;;;;;;;;;;;28.85;47.06;94514.84;5089760;28;20028;-65
2022/09/14 07:51:04;;;;;;;;;;;;;;;29.21;45.96;94519.25;5072139;28;20016;-65
2022/09/14 07:53:29;;;;;;;;;;;;;;;29.58;44.17;94525.91;5071990;28;20054;-65
2022/09/14 07:55:57;;;;;;;;;;;;;;;29.87;43.63;94520.25;5102807;28;20020;-65
2022/09/14 07:58:22;;;;;;;;;;;;;;;29.92;42.76;94524.38;5088805;28;20103;-65
2022/09/14 08:00:47;;;;;;;;;;;;;;;29.77;42.83;94524.09;5090110;28;20091;-65
2022/09/14 08:03:12;;;;;;;;;;;;;;;30.01;41.73;94525.25;5090165;28;20012;-65
2022/09/14 08:05:37;;;;;;;;;;;;;;;29.20;42.68;94543.13;5090139;28;20005;-65
2022/09/14 08:08:03;;;;;;;;;;;;;;;29.87;41.67;94542.16;5088972;28;20103;-66
2022/09/14 08:10:28;;;;;;;;;;;;;;;30.27;40.88;94542.38;5071140;28;20009;-65
2022/09/14 08:12:54;;;;;;;;;;;;;;;29.80;41.66;94553.38;5089082;28;20008;-65
2022/09/14 08:15:20;;;;;;;;;;;;;;;29.74;41.77;94566.88;5089919;28;20536;-65
2022/09/14 08:17:46;;;;;;;;;;;;;;;29.18;42.73;94559.25;5071836;28;20027;-65
2022/09/14 08:20:11;;;;;;;;;;;;;;;28.70;42.23;94555.53;5088291;28;20095;-67
2022/09/14 08:22:36;;;;;;;;;;;;;;;29.60;41.86;94547.41;5089917;28;20468;-65
2022/09/14 08:25:01;;;;;;;;;;;;;;;28.73;43.53;94551.94;5090036;28;20001;-65
2022/09/14 08:27:27;;;;;;;;;;;;;;;29.53;42.54;94553.81;5089636;28;20012;-65
2022/09/14 08:29:52;;;;;;;;;;;;;;;29.19;42.45;94549.06;5088198;28;20024;-65
2022/09/14 08:32:17;;;;;;;;;;;;;;;28.41;44.75;94552.09;5105403;28;20008;-65
2022/09/14 08:34:43;;;;;;;;;;;;;;;28.15;43.57;94554.72;5105365;28;20027;-65
2022/09/14 08:37:09;;;;;;;;;;;;;;;26.72;46.82;94556.50;5089657;28;20005;-65
2022/09/14 08:39:34;;;;;;;;;;;;;;;26.69;46.84;94566.31;5088121;28;20073;-64
2022/09/14 08:42:00;;;;;;;;;;;;;;;27.46;45.62;94563.03;5089750;28;20095;-65
2022/09/14 08:44:28;;;;;;;;;;;;;;;28.16;43.54;94563.69;5088443;28;20125;-65
2022/09/14 08:46:56;;;;;;;;;;;;;;;27.70;44.61;94566.41;5086420;28;20115;-65
2022/09/14 08:49:25;;;;;;;;;;;;;;;28.04;43.82;94561.66;5070872;28;20125;-65
2022/09/14 08:51:50;;;;;;;;;;;;;;;28.18;43.63;94562.03;5089596;28;20009;-65
2022/09/14 08:54:16;;;;;;;;;;;;;;;27.36;45.06;94564.06;5071093;28;20039;-65
2022/09/14 08:56:43;;;;;;;;;;;;;;;27.86;44.46;94562.88;5071288;28;20507;-65
2022/09/14 08:59:08;;;;;;;;;;;;;;;28.47;42.32;94577.72;5070349;28;20559;-65
2022/09/14 09:01:43;;;;;;;;;;;;;;;26.31;46.78;94577.56;5089390;28;20087;-65
2022/09/14 09:04:12;;;;;;;;;;;;;;;27.78;44.39;94583.38;5089220;28;20012;-65
2022/09/14 09:06:52;;;;;;;;;;;;;;;28.02;43.85;94577.72;5089282;28;20020;-64
2022/09/14 09:09:23;;;;;;;;;;;;;;;27.67;44.23;94589.06;5087903;28;20115;-64
2022/09/14 09:11:50;;;;;;;;;;;;;;;28.48;43.64;94584.72;5090289;28;20004;-64
2022/09/14 09:14:38;;;;;;;;;;;;;;;28.75;42.19;94578.88;5091796;28;20036;-66
2022/09/14 09:17:09;;;;;;;;;;;;;;;28.20;43.79;94578.00;5081873;28;20013;-65
2022/09/14 09:19:40;;;;;;;;;;;;;;;29.81;40.92;94596.03;5092586;28;20044;-64
2022/09/14 09:22:12;;;;;;;;;;;;;;;29.33;41.95;94595.19;5073871;28;20017;-64
2022/09/14 09:24:39;;;;;;;;;;;;;;;28.95;42.45;94584.97;5074903;28;20005;-64
2022/09/14 09:27:11;;;;;;;;;;;;;;;29.06;41.90;94592.84;5074597;28;20009;-64
2022/09/14 09:29:37;;;;;;;;;;;;;;;27.99;44.04;94587.53;5091372;28;20052;-65
2022/09/14 09:32:03;;;;;;;;;;;;;;;28.04;44.01;94597.94;5091840;28;20047;-65
2022/09/14 09:34:29;;;;;;;;;;;;;;;27.32;44.67;94603.56;5092127;28;20415;-65
2022/09/14 09:36:54;;;;;;;;;;;;;;;28.22;43.33;94600.25;5074243;28;20111;-66
2022/09/14 09:39:20;;;;;;;;;;;;;;;28.60;42.80;94594.16;5092312;28;20377;-66
2022/09/14 09:41:51;;;;;;;;;;;;;;;28.40;42.70;94588.84;5092120;28;20016;-65
2022/09/14 09:44:17;;;;;;;;;;;;;;;28.23;43.15;94601.78;5091063;28;20013;-66
2022/09/14 09:46:47;;;;;;;;;;;;;;;28.90;42.64;94601.13;5093455;28;20012;-62
2022/09/14 09:49:24;;;;;;;;;;;;;;;29.69;41.50;94605.06;5105702;28;20710;-64
2022/09/14 09:51:49;;;;;;;;;;;;;;;29.12;41.35;94623.97;5081370;28;20047;-64
2022/09/14 09:54:15;;;;;;;;;;;;;;;27.96;44.27;94616.50;5080792;28;20062;-64
2022/09/14 09:57:01;;;;;;;;;;;;;;;28.89;42.89;94602.34;5092464;28;20404;-64
2022/09/14 09:59:37;;;;;;;;;;;;;;;26.90;44.85;94604.06;5071802;28;20013;-65
2022/09/14 10:02:22;;;;;;;;;;;;;;;27.01;45.33;94597.59;5092236;28;20005;-64
2022/09/14 10:04:58;;;;;;;;;;;;;;;27.29;44.75;94601.72;5074285;28;20013;-64
2022/09/14 10:07:24;;;;;;;;;;;;;;;27.47;44.50;94591.13;5073439;28;20013;-65
2022/09/14 10:10:18;;;;;;;;;;;;;;;28.73;42.61;94573.06;5073640;28;20009;-64
2022/09/14 10:12:48;;;;;;;;;;;;;;;28.98;41.85;94558.69;5073029;28;20017;-65
2022/09/14 10:15:15;;;;;;;;;;;;;;;28.53;42.36;94554.09;5092103;28;20013;-65
2022/09/14 10:17:51;;;;;;;;;;;;;;;27.92;44.30;94550.22;5090810;28;20017;-66
2022/09/14 10:20:21;;;;;;;;;;;;;;;28.53;43.20;94542.38;5091785;28;20465;-67
2022/09/14 10:22:46;;;;;;;;;;;;;;;27.56;45.89;94558.53;5091458;28;20017;-65
2022/09/14 10:25:21;;;;;;;;;;;;;;;28.01;43.50;94552.34;5091351;28;20540;-65
2022/09/14 10:27:47;;;;;;;;;;;;;;;27.64;44.91;94564.56;5060205;28;20052;-66
2022/09/14 10:30:17;;;;;;;;;;;;;;;28.14;44.62;94549.66;5072382;28;20020;-66
2022/09/14 10:32:45;;;;;;;;;;;;;;;27.75;45.05;94554.19;5073482;28;20055;-65
2022/09/14 10:35:12;;;;;;;;;;;;;;;27.61;45.26;94549.03;5091621;28;20645;-66
2022/09/14 10:37:45;;;;;;;;;;;;;;;27.58;44.56;94552.63;5090545;28;20019;-65
2022/09/14 10:40:15;;;;;;;;;;;;;;;27.91;44.32;94526.06;5090845;28;20009;-66
2022/09/14 10:42:42;;;;;;;;;;;;;;;27.64;44.63;94526.31;5073167;28;20039;-65
2022/09/14 10:45:10;;;;;;;;;;;;;;;27.40;44.92;94517.56;5090261;28;20032;-65
2022/09/14 10:47:53;;;;;;;;;;;;;;;27.83;44.37;94511.03;5090930;28;20465;-65
2022/09/14 10:50:27;;;;;;;;;;;;;;;27.40;45.17;94523.78;5069842;28;20008;-65
2022/09/14 10:52:59;;;;;;;;;;;;;;;27.34;45.60;94514.59;5089446;28;20016;-65
2022/09/14 10:55:32;;;;;;;;;;;;;;;27.26;45.86;94524.13;5090725;28;20111;-65
2022/09/14 10:58:17;;;;;;;;;;;;;;;28.37;43.32;94513.13;5072854;28;20008;-66
2022/09/14 11:01:01;;;;;;;;;;;;;;;26.96;46.56;94517.75;5072464;28;20058;-65
2022/09/14 11:03:29;;;;;;;;;;;;;;;28.11;44.25;94507.56;5072772;28;20013;-65
2022/09/14 11:06:00;;;;;;;;;;;;;;;27.71;45.31;94504.31;5090923;28;20011;-65
2022/09/14 11:08:36;;;;;;;;;;;;;;;27.47;45.07;94509.19;5070958;28;20021;-65
2022/09/14 11:11:15;;;;;;;;;;;;;;;28.19;42.85;94497.94;5072940;28;20488;-65
2022/09/14 11:13:50;;;;;;;;;;;;;;;26.75;46.39;94499.13;5089957;28;20008;-65
2022/09/14 11:16:29;;;;;;;;;;;;;;;27.99;43.75;94500.81;5052298;28;20158;-65
2022/09/14 11:19:17;;;;;;;;;;;;;;;27.73;44.06;94507.38;5051769;28;20062;-65
2022/09/14 11:21:49;;;;;;;;;;;;;;;27.90;42.95;94497.97;5082415;28;20013;-65
2022/09/14 11:24:17;;;;;;;;;;;;;;;27.09;43.98;94427.81;5072518;28;20005;-65
2022/09/14 11:27:03;;;;;;;;;;;;;;;27.97;42.92;94491.53;5072546;28;20120;-65
2022/09/14 11:29:28;;;;;;;;;;;;;;;27.93;43.38;94477.97;5088367;28;20012;-65
2022/09/14 11:32:05;;;;;;;;;;;;;;;28.20;42.81;94471.38;5089502;28;20516;-65
2022/09/14 11:34:34;;;;;;;;;;;;;;;28.21;42.74;94470.94;5070661;28;20529;-65
2022/09/14 11:37:09;;;;;;;;;;;;;;;27.15;44.37;94477.22;5065085;28;20014;-67
2022/09/14 11:39:45;;;;;;;;;;;;;;;27.72;43.76;94470.34;5088248;28;20012;-66
2022/09/14 11:42:16;;;;;;;;;;;;;;;27.42;44.49;94472.22;5090182;28;20016;-66
2022/09/14 11:44:43;;;;;;;;;;;;;;;27.31;44.87;94465.50;5089395;28;20013;-66
2022/09/14 11:47:16;;;;;;;;;;;;;;;27.70;44.77;94461.78;5090276;28;20098;-65
2022/09/14 11:49:54;;;;;;;;;;;;;;;27.82;44.16;94452.88;5071664;28;20024;-66
2022/09/14 11:52:21;;;;;;;;;;;;;;;28.07;44.22;94441.28;5071269;28;20107;-66
2022/09/14 11:54:47;;;;;;;;;;;;;;;28.44;43.42;94442.56;5089555;28;20437;-66
2022/09/14 11:57:17;;;;;;;;;;;;;;;27.60;44.32;94443.72;5071981;28;20016;-66
2022/09/14 11:59:43;;;;;;;;;;;;;;;28.16;43.24;94435.94;5066049;28;20020;-65
2022/09/14 12:02:26;;;;;;;;;;;;;;;28.07;44.06;94445.97;5090075;28;20009;-65
2022/09/14 12:05:03;;;;;;;;;;;;;;;28.23;43.58;94427.50;5090167;28;20054;-65
2022/09/14 12:07:54;;;;;;;;;;;;;;;27.85;43.83;94430.16;5089967;28;20065;-65
2022/09/14 12:10:20;;;;;;;;;;;;;;;28.05;43.49;94426.47;5060672;28;20020;-65
2022/09/14 12:12:53;;;;;;;;;;;;;;;28.36;43.33;94441.25;5071746;28;20020;-65
2022/09/14 12:15:24;;;;;;;;;;;;;;;28.39;42.94;94431.41;5070823;28;20361;-65
2022/09/14 12:18:13;;;;;;;;;;;;;;;28.21;41.74;94424.47;5071982;28;20106;-65
2022/09/14 12:20:56;;;;;;;;;;;;;;;28.06;42.77;94419.84;5089426;28;20013;-65
2022/09/14 12:23:25;;;;;;;;;;;;;;;28.05;43.02;94416.34;5087820;28;20013;-65
2022/09/14 12:25:56;;;;;;;;;;;;;;;28.41;42.56;94427.03;5088947;28;20103;-65
2022/09/14 12:28:27;;;;;;;;;;;;;;;28.18;43.18;94419.09;5069234;28;20020;-65
2022/09/14 12:30:52;;;;;;;;;;;;;;;28.38;42.99;94433.38;5069703;28;20488;-65
2022/09/14 12:33:30;;;;;;;;;;;;;;;28.11;43.09;94431.00;5069567;28;20005;-65
2022/09/14 12:36:11;;;;;;;;;;;;;;;27.99;42.45;94446.16;5069908;28;20005;-65
2022/09/14 12:38:36;;;;;;;;;;;;;;;27.91;43.74;94439.38;5063982;28;20481;-65
2022/09/14 12:41:21;;;;;;;;;;;;;;;28.58;42.15;94435.91;5089711;28;20150;-65
2022/09/14 12:43:50;;;;;;;;;;;;;;;28.29;43.52;94433.22;5070202;28;20111;-65
2022/09/14 12:46:21;;;;;;;;;;;;;;;28.48;42.58;94447.94;5089341;28;20008;-66
2022/09/14 12:48:46;;;;;;;;;;;;;;;28.63;42.27;94429.88;5092227;28;20020;-67
2022/09/14 12:51:22;;;;;;;;;;;;;;;28.37;43.18;94437.31;5075485;28;20016;-66
2022/09/14 12:53:52;;;;;;;;;;;;;;;28.96;41.85;94443.34;5093352;28;20008;-65